sensor_id;sensor_type;location;lat;lon;timestamp;P1;durP1;ratioP1;P2;durP2;ratioP2
8268;SDS011;4174;48.304;16.364;2023-03-01T00:02:27;31.45;;;12.75;;
8268;SDS011;4174;48.304;16.364;2023-03-01T00:08:35;33.50;;;13.50;;
8268;SDS011;4174;48.304;16.364;2023-03-01T00:14:40;29.95;;;13.23;;
8268;SDS011;4174;48.304;16.364;2023-03-01T00:20:50;29.85;;;13.45;;
8268;SDS011;4174;48.304;16.364;2023-03-01T00:26:55;29.23;;;13.30;;
8268;SDS011;4174;48.304;16.364;2023-03-01T00:33:02;31.73;;;13.70;;
8268;SDS011;4174;48.304;16.364;2023-03-01T00:39:09;31.80;;;13.97;;
8268;SDS011;4174;48.304;16.364;2023-03-01T00:45:12;31.97;;;15.33;;
8268;SDS011;4174;48.304;16.364;2023-03-01T00:51:19;30.02;;;14.87;;
8268;SDS011;4174;48.304;16.364;2023-03-01T00:57:23;31.73;;;15.95;;
8268;SDS011;4174;48.304;16.364;2023-03-01T01:03:29;33.45;;;16.45;;
8268;SDS011;4174;48.304;16.364;2023-03-01T01:09:36;33.03;;;16.85;;
8268;SDS011;4174;48.304;16.364;2023-03-01T01:15:43;31.37;;;15.98;;
8268;SDS011;4174;48.304;16.364;2023-03-01T01:21:49;31.00;;;15.98;;
8268;SDS011;4174;48.304;16.364;2023-03-01T01:27:57;32.97;;;16.07;;
8268;SDS011;4174;48.304;16.364;2023-03-01T01:34:03;31.63;;;17.10;;
8268;SDS011;4174;48.304;16.364;2023-03-01T01:40:09;34.45;;;17.42;;
8268;SDS011;4174;48.304;16.364;2023-03-01T01:46:19;36.33;;;18.92;;
8268;SDS011;4174;48.304;16.364;2023-03-01T01:52:35;33.70;;;16.90;;
8268;SDS011;4174;48.304;16.364;2023-03-01T01:58:41;33.50;;;15.57;;
8268;SDS011;4174;48.304;16.364;2023-03-01T02:04:46;33.35;;;14.38;;
8268;SDS011;4174;48.304;16.364;2023-03-01T02:10:54;31.25;;;13.25;;
8268;SDS011;4174;48.304;16.364;2023-03-01T02:16:59;31.37;;;12.83;;
8268;SDS011;4174;48.304;16.364;2023-03-01T02:23:04;31.50;;;12.80;;
8268;SDS011;4174;48.304;16.364;2023-03-01T02:29:09;32.43;;;13.50;;
8268;SDS011;4174;48.304;16.364;2023-03-01T02:35:15;32.90;;;13.52;;
8268;SDS011;4174;48.304;16.364;2023-03-01T02:41:19;31.13;;;13.23;;
8268;SDS011;4174;48.304;16.364;2023-03-01T02:47:26;34.23;;;13.47;;
8268;SDS011;4174;48.304;16.364;2023-03-01T02:53:35;31.67;;;13.40;;
8268;SDS011;4174;48.304;16.364;2023-03-01T02:59:41;30.95;;;12.82;;
8268;SDS011;4174;48.304;16.364;2023-03-01T03:05:47;31.60;;;12.95;;
8268;SDS011;4174;48.304;16.364;2023-03-01T03:11:53;30.93;;;12.30;;
8268;SDS011;4174;48.304;16.364;2023-03-01T03:17:59;32.37;;;12.07;;
8268;SDS011;4174;48.304;16.364;2023-03-01T03:24:04;32.30;;;12.88;;
8268;SDS011;4174;48.304;16.364;2023-03-01T03:36:32;33.38;;;13.00;;
8268;SDS011;4174;48.304;16.364;2023-03-01T03:42:38;34.57;;;12.50;;
8268;SDS011;4174;48.304;16.364;2023-03-01T03:48:43;33.20;;;13.17;;
8268;SDS011;4174;48.304;16.364;2023-03-01T03:54:49;33.77;;;13.53;;
8268;SDS011;4174;48.304;16.364;2023-03-01T04:00:56;32.85;;;13.48;;
8268;SDS011;4174;48.304;16.364;2023-03-01T04:07:01;31.90;;;12.35;;
8268;SDS011;4174;48.304;16.364;2023-03-01T04:13:08;35.03;;;12.93;;
8268;SDS011;4174;48.304;16.364;2023-03-01T04:19:15;32.97;;;12.98;;
8268;SDS011;4174;48.304;16.364;2023-03-01T04:25:21;32.67;;;13.13;;
8268;SDS011;4174;48.304;16.364;2023-03-01T04:31:30;35.25;;;12.80;;
8268;SDS011;4174;48.304;16.364;2023-03-01T04:37:35;33.13;;;13.37;;
8268;SDS011;4174;48.304;16.364;2023-03-01T04:43:42;35.47;;;13.53;;
8268;SDS011;4174;48.304;16.364;2023-03-01T04:49:46;31.30;;;12.90;;
8268;SDS011;4174;48.304;16.364;2023-03-01T04:55:51;34.97;;;13.43;;
8268;SDS011;4174;48.304;16.364;2023-03-01T05:01:57;34.00;;;14.13;;
8268;SDS011;4174;48.304;16.364;2023-03-01T05:08:06;35.90;;;13.73;;
8268;SDS011;4174;48.304;16.364;2023-03-01T05:14:09;34.10;;;13.47;;
8268;SDS011;4174;48.304;16.364;2023-03-01T05:20:14;33.93;;;13.40;;
8268;SDS011;4174;48.304;16.364;2023-03-01T05:26:23;35.23;;;14.03;;
8268;SDS011;4174;48.304;16.364;2023-03-01T05:32:31;33.53;;;13.87;;
8268;SDS011;4174;48.304;16.364;2023-03-01T05:38:44;33.17;;;14.23;;
8268;SDS011;4174;48.304;16.364;2023-03-01T05:44:49;37.23;;;13.53;;
8268;SDS011;4174;48.304;16.364;2023-03-01T05:50:58;37.85;;;14.60;;
8268;SDS011;4174;48.304;16.364;2023-03-01T05:56:59;35.80;;;14.30;;
8268;SDS011;4174;48.304;16.364;2023-03-01T06:03:06;34.17;;;13.97;;
8268;SDS011;4174;48.304;16.364;2023-03-01T06:09:28;36.10;;;13.77;;
8268;SDS011;4174;48.304;16.364;2023-03-01T06:15:34;37.05;;;14.50;;
8268;SDS011;4174;48.304;16.364;2023-03-01T06:21:40;37.17;;;15.18;;
8268;SDS011;4174;48.304;16.364;2023-03-01T06:27:47;38.03;;;14.73;;
8268;SDS011;4174;48.304;16.364;2023-03-01T06:33:52;36.55;;;14.77;;
8268;SDS011;4174;48.304;16.364;2023-03-01T06:39:58;33.65;;;13.95;;
8268;SDS011;4174;48.304;16.364;2023-03-01T06:46:06;35.23;;;14.10;;
8268;SDS011;4174;48.304;16.364;2023-03-01T06:52:15;32.65;;;13.75;;
8268;SDS011;4174;48.304;16.364;2023-03-01T06:58:20;32.83;;;14.00;;
8268;SDS011;4174;48.304;16.364;2023-03-01T07:04:24;35.20;;;13.70;;
8268;SDS011;4174;48.304;16.364;2023-03-01T07:10:32;36.17;;;14.43;;
8268;SDS011;4174;48.304;16.364;2023-03-01T07:16:41;33.57;;;14.27;;
8268;SDS011;4174;48.304;16.364;2023-03-01T07:22:46;33.60;;;14.60;;
8268;SDS011;4174;48.304;16.364;2023-03-01T07:28:52;33.78;;;13.77;;
8268;SDS011;4174;48.304;16.364;2023-03-01T07:35:00;33.80;;;14.03;;
8268;SDS011;4174;48.304;16.364;2023-03-01T07:41:06;36.63;;;15.07;;
8268;SDS011;4174;48.304;16.364;2023-03-01T07:47:11;37.20;;;15.32;;
8268;SDS011;4174;48.304;16.364;2023-03-01T07:53:33;34.78;;;14.93;;
8268;SDS011;4174;48.304;16.364;2023-03-01T07:59:40;36.67;;;14.23;;
8268;SDS011;4174;48.304;16.364;2023-03-01T08:05:53;37.10;;;15.40;;
8268;SDS011;4174;48.304;16.364;2023-03-01T08:12:00;42.67;;;17.43;;
8268;SDS011;4174;48.304;16.364;2023-03-01T08:18:05;40.67;;;15.07;;
8268;SDS011;4174;48.304;16.364;2023-03-01T08:24:10;36.13;;;14.77;;
8268;SDS011;4174;48.304;16.364;2023-03-01T08:30:15;32.30;;;13.87;;
8268;SDS011;4174;48.304;16.364;2023-03-01T08:36:23;35.20;;;14.57;;
8268;SDS011;4174;48.304;16.364;2023-03-01T08:42:42;36.40;;;15.13;;
8268;SDS011;4174;48.304;16.364;2023-03-01T08:48:46;34.75;;;14.98;;
8268;SDS011;4174;48.304;16.364;2023-03-01T08:54:50;35.83;;;15.45;;
8268;SDS011;4174;48.304;16.364;2023-03-01T09:00:57;35.47;;;14.80;;
8268;SDS011;4174;48.304;16.364;2023-03-01T09:13:24;37.33;;;15.23;;
8268;SDS011;4174;48.304;16.364;2023-03-01T09:19:29;34.37;;;14.93;;
8268;SDS011;4174;48.304;16.364;2023-03-01T09:25:34;33.17;;;14.47;;
8268;SDS011;4174;48.304;16.364;2023-03-01T09:31:40;32.92;;;14.75;;
8268;SDS011;4174;48.304;16.364;2023-03-01T09:37:46;33.90;;;14.80;;
8268;SDS011;4174;48.304;16.364;2023-03-01T09:43:52;33.85;;;14.57;;
8268;SDS011;4174;48.304;16.364;2023-03-01T09:50:17;34.47;;;14.73;;
8268;SDS011;4174;48.304;16.364;2023-03-01T09:56:30;32.58;;;14.00;;
8268;SDS011;4174;48.304;16.364;2023-03-01T10:02:39;33.47;;;13.90;;
8268;SDS011;4174;48.304;16.364;2023-03-01T10:09:12;33.28;;;13.95;;
8268;SDS011;4174;48.304;16.364;2023-03-01T10:15:19;31.33;;;13.93;;
8268;SDS011;4174;48.304;16.364;2023-03-01T10:21:25;32.83;;;13.73;;
8268;SDS011;4174;48.304;16.364;2023-03-01T10:28:03;32.58;;;13.20;;
8268;SDS011;4174;48.304;16.364;2023-03-01T10:33:58;34.13;;;14.07;;
8268;SDS011;4174;48.304;16.364;2023-03-01T10:40:04;32.23;;;13.77;;
8268;SDS011;4174;48.304;16.364;2023-03-01T10:46:46;30.73;;;13.23;;
8268;SDS011;4174;48.304;16.364;2023-03-01T10:52:36;30.17;;;13.10;;
8268;SDS011;4174;48.304;16.364;2023-03-01T11:11:22;28.20;;;12.55;;
8268;SDS011;4174;48.304;16.364;2023-03-01T11:17:33;25.87;;;12.03;;
8268;SDS011;4174;48.304;16.364;2023-03-01T11:23:44;25.45;;;11.18;;
8268;SDS011;4174;48.304;16.364;2023-03-01T11:29:46;24.85;;;11.20;;
8268;SDS011;4174;48.304;16.364;2023-03-01T11:36:28;23.20;;;10.10;;
8268;SDS011;4174;48.304;16.364;2023-03-01T11:42:40;20.35;;;9.38;;
8268;SDS011;4174;48.304;16.364;2023-03-01T11:48:45;19.70;;;8.55;;
8268;SDS011;4174;48.304;16.364;2023-03-01T11:55:15;18.67;;;8.50;;
8268;SDS011;4174;48.304;16.364;2023-03-01T12:01:44;21.10;;;9.60;;
8268;SDS011;4174;48.304;16.364;2023-03-01T12:08:06;17.33;;;7.87;;
8268;SDS011;4174;48.304;16.364;2023-03-01T12:14:47;19.97;;;8.77;;
8268;SDS011;4174;48.304;16.364;2023-03-01T12:21:14;15.57;;;7.40;;
8268;SDS011;4174;48.304;16.364;2023-03-01T12:34:11;22.47;;;8.93;;
8268;SDS011;4174;48.304;16.364;2023-03-01T12:40:23;22.67;;;8.97;;
8268;SDS011;4174;48.304;16.364;2023-03-01T12:46:41;21.55;;;9.35;;
8268;SDS011;4174;48.304;16.364;2023-03-01T12:52:49;20.40;;;9.00;;
8268;SDS011;4174;48.304;16.364;2023-03-01T12:58:57;21.07;;;8.73;;
8268;SDS011;4174;48.304;16.364;2023-03-01T13:05:07;18.80;;;9.20;;
8268;SDS011;4174;48.304;16.364;2023-03-01T13:11:22;21.13;;;9.80;;
8268;SDS011;4174;48.304;16.364;2023-03-01T13:17:40;24.05;;;11.23;;
8268;SDS011;4174;48.304;16.364;2023-03-01T13:23:47;21.83;;;10.45;;
8268;SDS011;4174;48.304;16.364;2023-03-01T13:29:53;22.73;;;10.30;;
8268;SDS011;4174;48.304;16.364;2023-03-01T13:36:01;21.83;;;10.57;;
8268;SDS011;4174;48.304;16.364;2023-03-01T13:42:41;21.92;;;9.80;;
8268;SDS011;4174;48.304;16.364;2023-03-01T13:48:47;25.07;;;11.47;;
8268;SDS011;4174;48.304;16.364;2023-03-01T13:54:56;22.73;;;11.25;;
8268;SDS011;4174;48.304;16.364;2023-03-01T14:01:05;21.80;;;10.17;;
8268;SDS011;4174;48.304;16.364;2023-03-01T14:07:11;22.93;;;10.57;;
8268;SDS011;4174;48.304;16.364;2023-03-01T14:13:23;22.63;;;10.40;;
8268;SDS011;4174;48.304;16.364;2023-03-01T14:19:38;22.85;;;10.95;;
8268;SDS011;4174;48.304;16.364;2023-03-01T14:25:47;23.48;;;10.52;;
8268;SDS011;4174;48.304;16.364;2023-03-01T14:31:51;22.25;;;10.40;;
8268;SDS011;4174;48.304;16.364;2023-03-01T14:37:57;23.70;;;10.90;;
8268;SDS011;4174;48.304;16.364;2023-03-01T14:44:05;22.80;;;10.60;;
8268;SDS011;4174;48.304;16.364;2023-03-01T14:50:23;23.23;;;10.77;;
8268;SDS011;4174;48.304;16.364;2023-03-01T14:56:24;21.55;;;10.10;;
8268;SDS011;4174;48.304;16.364;2023-03-01T15:02:31;24.37;;;9.85;;
8268;SDS011;4174;48.304;16.364;2023-03-01T15:08:39;22.70;;;10.38;;
8268;SDS011;4174;48.304;16.364;2023-03-01T15:14:43;20.43;;;9.83;;
8268;SDS011;4174;48.304;16.364;2023-03-01T15:20:48;21.77;;;9.70;;
8268;SDS011;4174;48.304;16.364;2023-03-01T15:26:57;22.13;;;9.93;;
8268;SDS011;4174;48.304;16.364;2023-03-01T15:39:55;21.23;;;9.27;;
8268;SDS011;4174;48.304;16.364;2023-03-01T15:45:46;21.73;;;9.90;;
8268;SDS011;4174;48.304;16.364;2023-03-01T15:51:51;20.85;;;9.48;;
8268;SDS011;4174;48.304;16.364;2023-03-01T15:58:09;22.75;;;9.65;;
8268;SDS011;4174;48.304;16.364;2023-03-01T16:04:18;22.95;;;10.68;;
8268;SDS011;4174;48.304;16.364;2023-03-01T16:10:24;25.88;;;11.20;;
8268;SDS011;4174;48.304;16.364;2023-03-01T16:16:34;22.27;;;10.23;;
8268;SDS011;4174;48.304;16.364;2023-03-01T16:22:41;23.23;;;10.20;;
8268;SDS011;4174;48.304;16.364;2023-03-01T16:28:45;23.95;;;11.12;;
8268;SDS011;4174;48.304;16.364;2023-03-01T16:34:50;25.50;;;11.83;;
8268;SDS011;4174;48.304;16.364;2023-03-01T16:40:56;26.70;;;11.37;;
8268;SDS011;4174;48.304;16.364;2023-03-01T16:47:13;27.63;;;11.97;;
8268;SDS011;4174;48.304;16.364;2023-03-01T16:53:19;26.00;;;11.75;;
8268;SDS011;4174;48.304;16.364;2023-03-01T16:59:26;25.88;;;11.60;;
8268;SDS011;4174;48.304;16.364;2023-03-01T17:05:39;24.77;;;12.05;;
8268;SDS011;4174;48.304;16.364;2023-03-01T17:12:11;37.17;;;14.27;;
8268;SDS011;4174;48.304;16.364;2023-03-01T17:18:27;39.60;;;15.95;;
8268;SDS011;4174;48.304;16.364;2023-03-01T17:24:38;33.38;;;14.63;;
8268;SDS011;4174;48.304;16.364;2023-03-01T17:30:53;32.60;;;13.18;;
8268;SDS011;4174;48.304;16.364;2023-03-01T17:37:11;30.10;;;12.75;;
8268;SDS011;4174;48.304;16.364;2023-03-01T17:49:53;31.33;;;14.20;;
8268;SDS011;4174;48.304;16.364;2023-03-01T17:56:37;36.93;;;15.17;;
8268;SDS011;4174;48.304;16.364;2023-03-01T18:02:59;35.13;;;14.80;;
8268;SDS011;4174;48.304;16.364;2023-03-01T18:09:02;30.90;;;13.10;;
8268;SDS011;4174;48.304;16.364;2023-03-01T18:15:08;33.50;;;13.02;;
8268;SDS011;4174;48.304;16.364;2023-03-01T18:21:18;37.47;;;14.63;;
8268;SDS011;4174;48.304;16.364;2023-03-01T18:27:27;40.70;;;15.88;;
8268;SDS011;4174;48.304;16.364;2023-03-01T18:33:37;35.00;;;13.57;;
8268;SDS011;4174;48.304;16.364;2023-03-01T18:39:44;28.80;;;12.00;;
8268;SDS011;4174;48.304;16.364;2023-03-01T18:45:55;29.85;;;12.80;;
8268;SDS011;4174;48.304;16.364;2023-03-01T18:51:58;31.90;;;13.87;;
8268;SDS011;4174;48.304;16.364;2023-03-01T18:58:11;36.92;;;16.12;;
8268;SDS011;4174;48.304;16.364;2023-03-01T19:04:15;36.50;;;15.90;;
8268;SDS011;4174;48.304;16.364;2023-03-01T19:10:22;37.05;;;14.90;;
8268;SDS011;4174;48.304;16.364;2023-03-01T19:16:28;42.40;;;16.60;;
8268;SDS011;4174;48.304;16.364;2023-03-01T19:22:37;31.40;;;13.02;;
8268;SDS011;4174;48.304;16.364;2023-03-01T19:28:45;28.27;;;12.15;;
8268;SDS011;4174;48.304;16.364;2023-03-01T19:34:49;36.65;;;16.23;;
8268;SDS011;4174;48.304;16.364;2023-03-01T19:40:55;41.37;;;17.42;;
8268;SDS011;4174;48.304;16.364;2023-03-01T19:46:59;45.78;;;20.15;;
8268;SDS011;4174;48.304;16.364;2023-03-01T19:53:04;46.22;;;18.73;;
8268;SDS011;4174;48.304;16.364;2023-03-01T19:59:11;48.50;;;18.87;;
8268;SDS011;4174;48.304;16.364;2023-03-01T20:05:15;44.67;;;18.87;;
8268;SDS011;4174;48.304;16.364;2023-03-01T20:11:20;45.38;;;17.90;;
8268;SDS011;4174;48.304;16.364;2023-03-01T20:17:26;40.78;;;16.37;;
8268;SDS011;4174;48.304;16.364;2023-03-01T20:23:32;38.05;;;15.80;;
8268;SDS011;4174;48.304;16.364;2023-03-01T20:29:37;36.90;;;15.38;;
8268;SDS011;4174;48.304;16.364;2023-03-01T20:35:41;39.95;;;16.65;;
8268;SDS011;4174;48.304;16.364;2023-03-01T20:41:46;40.33;;;16.53;;
8268;SDS011;4174;48.304;16.364;2023-03-01T20:47:52;45.23;;;18.50;;
8268;SDS011;4174;48.304;16.364;2023-03-01T20:53:58;44.72;;;17.73;;
8268;SDS011;4174;48.304;16.364;2023-03-01T21:00:03;39.20;;;16.53;;
8268;SDS011;4174;48.304;16.364;2023-03-01T21:06:10;41.73;;;17.37;;
8268;SDS011;4174;48.304;16.364;2023-03-01T21:18:45;43.22;;;17.55;;
8268;SDS011;4174;48.304;16.364;2023-03-01T21:24:50;41.57;;;17.13;;
8268;SDS011;4174;48.304;16.364;2023-03-01T21:30:56;42.40;;;18.12;;
8268;SDS011;4174;48.304;16.364;2023-03-01T21:37:16;45.53;;;18.63;;
8268;SDS011;4174;48.304;16.364;2023-03-01T21:43:24;43.92;;;19.12;;
8268;SDS011;4174;48.304;16.364;2023-03-01T21:49:30;44.33;;;18.43;;
8268;SDS011;4174;48.304;16.364;2023-03-01T21:55:34;42.47;;;18.30;;
8268;SDS011;4174;48.304;16.364;2023-03-01T22:01:38;41.83;;;17.83;;
8268;SDS011;4174;48.304;16.364;2023-03-01T22:07:46;41.13;;;18.30;;
8268;SDS011;4174;48.304;16.364;2023-03-01T22:13:53;40.33;;;18.00;;
8268;SDS011;4174;48.304;16.364;2023-03-01T22:19:56;37.33;;;17.02;;
8268;SDS011;4174;48.304;16.364;2023-03-01T22:26:02;39.33;;;17.10;;
8268;SDS011;4174;48.304;16.364;2023-03-01T22:32:06;43.00;;;16.60;;
8268;SDS011;4174;48.304;16.364;2023-03-01T22:38:12;40.57;;;17.33;;
8268;SDS011;4174;48.304;16.364;2023-03-01T22:44:18;42.40;;;17.40;;
8268;SDS011;4174;48.304;16.364;2023-03-01T22:50:21;46.25;;;17.70;;
8268;SDS011;4174;48.304;16.364;2023-03-01T22:56:33;40.67;;;17.67;;
8268;SDS011;4174;48.304;16.364;2023-03-01T23:02:36;47.05;;;18.60;;
8268;SDS011;4174;48.304;16.364;2023-03-01T23:08:42;44.53;;;18.50;;
8268;SDS011;4174;48.304;16.364;2023-03-01T23:14:47;46.33;;;18.13;;
8268;SDS011;4174;48.304;16.364;2023-03-01T23:20:53;42.17;;;18.07;;
8268;SDS011;4174;48.304;16.364;2023-03-01T23:26:59;44.08;;;18.02;;
8268;SDS011;4174;48.304;16.364;2023-03-01T23:33:03;42.55;;;17.48;;
8268;SDS011;4174;48.304;16.364;2023-03-01T23:39:10;42.62;;;17.67;;
8268;SDS011;4174;48.304;16.364;2023-03-01T23:45:14;41.20;;;17.80;;
8268;SDS011;4174;48.304;16.364;2023-03-01T23:51:18;42.53;;;17.63;;
8268;SDS011;4174;48.304;16.364;2023-03-01T23:57:21;44.43;;;18.97;;
